Time;durP1;ratioP1;P1;durP2;ratioP2;P2;SDS_P1;SDS_P2;PMS_P1;PMS_P2;Temp;Humidity;BMP_temperature;BMP_pressure;BME280_temperature;BME280_humidity;BME280_pressure;Samples;Min_cycle;Max_cycle;Signal;HPM_P1;HPM_P2
2022/04/30 00:00:58;;;;;;;10.83;6.03;;;5.90;99.90;;;;;;5055765;28;20049;-34
2022/04/30 00:03:28;;;;;;;11.73;5.20;;;5.90;99.90;;;;;;5046637;28;20037;-34
2022/04/30 00:05:57;;;;;;;12.40;5.40;;;5.90;99.90;;;;;;5047208;28;20075;-34
2022/04/30 00:08:23;;;;;;;10.37;5.83;;;5.80;99.90;;;;;;5048715;28;20413;-35
2022/04/30 00:10:50;;;;;;;8.03;5.13;;;5.80;99.90;;;;;;5066712;28;20045;-34
2022/04/30 00:13:17;;;;;;;11.00;6.20;;;5.80;99.90;;;;;;5065686;28;20056;-35
2022/04/30 00:15:43;;;;;;;11.10;5.40;;;5.80;99.90;;;;;;5049016;28;20098;-34
2022/04/30 00:18:10;;;;;;;8.10;5.60;;;5.80;99.90;;;;;;5037663;28;20468;-34
2022/04/30 00:20:36;;;;;;;13.73;5.93;;;5.80;99.90;;;;;;5067544;28;20163;-34
2022/04/30 00:23:03;;;;;;;11.63;6.17;;;5.80;99.90;;;;;;5067325;28;20144;-34
2022/04/30 00:25:29;;;;;;;10.43;5.37;;;5.80;99.90;;;;;;5063464;28;20036;-34
2022/04/30 00:27:55;;;;;;;12.23;6.20;;;5.80;99.90;;;;;;5031619;28;20059;-34
2022/04/30 00:30:21;;;;;;;13.83;6.33;;;5.80;99.90;;;;;;5047153;28;20626;-34
2022/04/30 00:32:48;;;;;;;12.70;5.57;;;5.80;99.90;;;;;;5047313;28;20516;-34
2022/04/30 00:35:14;;;;;;;12.60;5.77;;;5.80;99.90;;;;;;5047348;28;20044;-34
2022/04/30 00:37:40;;;;;;;8.97;5.53;;;5.70;99.90;;;;;;5032208;28;20076;-35
2022/04/30 00:40:06;;;;;;;11.90;5.93;;;5.80;99.90;;;;;;5062067;28;20064;-35
2022/04/30 00:42:32;;;;;;;8.57;5.57;;;5.70;99.90;;;;;;5067459;28;20044;-34
2022/04/30 00:44:58;;;;;;;11.37;5.57;;;5.70;99.90;;;;;;5067257;28;20040;-34
2022/04/30 00:47:25;;;;;;;12.90;5.80;;;5.70;99.90;;;;;;5051694;28;20072;-35
2022/04/30 00:49:51;;;;;;;11.03;5.70;;;5.70;99.90;;;;;;5052318;28;20433;-34
2022/04/30 00:52:17;;;;;;;13.20;6.30;;;5.70;99.90;;;;;;5046878;28;20455;-35
2022/04/30 00:54:49;;;;;;;11.33;5.83;;;5.70;99.90;;;;;;5047933;28;20040;-34
2022/04/30 00:57:22;;;;;;;9.67;5.57;;;5.70;99.90;;;;;;5035570;28;20041;-34
2022/04/30 00:59:58;;;;;;;11.87;5.70;;;5.70;99.90;;;;;;5051555;28;20037;-34
2022/04/30 01:02:28;;;;;;;12.00;5.73;;;5.60;99.90;;;;;;5070925;28;20051;-34
2022/04/30 01:04:55;;;;;;;12.87;5.87;;;5.60;99.90;;;;;;5051244;28;20084;-34
2022/04/30 01:07:21;;;;;;;13.73;6.63;;;5.70;99.90;;;;;;5034936;28;21052;-34
2022/04/30 01:09:48;;;;;;;10.03;5.60;;;5.70;99.90;;;;;;5050760;28;20053;-34
2022/04/30 01:12:14;;;;;;;10.23;6.03;;;5.70;99.90;;;;;;5050480;28;20119;-34
2022/04/30 01:14:41;;;;;;;13.60;6.27;;;5.70;99.90;;;;;;5051126;28;20049;-34
2022/04/30 01:17:09;;;;;;;11.30;5.90;;;5.70;99.90;;;;;;5033330;28;20048;-35
2022/04/30 01:19:37;;;;;;;10.83;6.57;;;5.70;99.90;;;;;;5050439;28;20064;-34
2022/04/30 01:22:28;;;;;;;10.47;5.83;;;5.70;99.90;;;;;;5050072;28;20116;-38
2022/04/30 01:24:56;;;;;;;11.93;6.55;;;5.70;99.90;;;;;;5045023;28;20506;-34
2022/04/30 01:27:26;;;;;;;11.10;5.80;;;5.90;99.90;;;;;;5034908;28;20085;-34
2022/04/30 01:29:56;;;;;;;10.17;5.70;;;5.70;99.90;;;;;;5049406;28;20102;-35
2022/04/30 01:38:20;;;;;;;10.37;6.53;;;5.70;99.90;;;;;;5035426;28;20124;-34
2022/04/30 01:40:49;;;;;;;17.00;6.97;;;5.70;99.90;;;;;;5050109;28;20048;-34
2022/04/30 01:43:16;;;;;;;12.33;6.20;;;5.70;99.90;;;;;;5050008;28;20072;-34
2022/04/30 01:45:46;;;;;;;11.73;6.47;;;5.70;99.90;;;;;;5037155;28;20057;-34
2022/04/30 01:48:14;;;;;;;11.70;6.47;;;5.70;99.90;;;;;;5048402;28;20072;-34
2022/04/30 01:50:41;;;;;;;11.57;6.20;;;5.80;99.90;;;;;;5056807;28;20044;-34
2022/04/30 01:53:07;;;;;;;11.87;6.20;;;5.70;99.90;;;;;;5069583;28;20041;-34
2022/04/30 01:55:33;;;;;;;14.53;6.10;;;5.70;99.90;;;;;;5064140;28;20049;-34
2022/04/30 01:57:58;;;;;;;11.83;6.43;;;5.70;99.90;;;;;;5033862;28;20094;-34
2022/04/30 02:00:26;;;;;;;13.80;6.33;;;5.80;99.90;;;;;;5060675;28;20175;-35
2022/04/30 02:02:54;;;;;;;12.03;6.50;;;5.70;99.90;;;;;;5049438;28;20049;-34
2022/04/30 02:05:20;;;;;;;8.83;5.67;;;5.60;99.90;;;;;;5050210;28;20105;-34
2022/04/30 02:07:57;;;;;;;11.47;6.73;;;5.60;99.90;;;;;;5045382;28;20044;-34
2022/04/30 02:10:24;;;;;;;12.87;5.93;;;5.60;99.90;;;;;;5050114;28;20041;-34
2022/04/30 02:12:51;;;;;;;11.10;6.30;;;5.60;99.90;;;;;;5048963;28;20071;-34
2022/04/30 02:15:19;;;;;;;10.10;6.47;;;5.50;99.90;;;;;;5049712;28;20053;-34
2022/04/30 02:17:46;;;;;;;10.00;5.83;;;5.60;99.90;;;;;;5033256;28;20056;-34
2022/04/30 02:20:27;;;;;;;14.23;6.77;;;5.50;99.90;;;;;;5050175;28;20103;-34
2022/04/30 02:22:56;;;;;;;9.30;5.35;;;5.50;99.90;;;;;;5067060;28;20036;-34
2022/04/30 02:25:22;;;;;;;13.10;6.60;;;5.50;99.90;;;;;;5068446;28;20502;-34
2022/04/30 02:27:56;;;;;;;11.57;6.57;;;5.40;99.90;;;;;;5032768;28;20072;-34
2022/04/30 02:30:23;;;;;;;9.90;6.13;;;5.40;99.90;;;;;;5049925;28;20057;-34
2022/04/30 02:32:56;;;;;;;11.43;5.20;;;5.40;99.90;;;;;;5048644;28;20505;-34
2022/04/30 02:35:28;;;;;;;11.10;6.30;;;5.40;99.90;;;;;;5049654;28;20110;-34
2022/04/30 02:37:57;;;;;;;10.30;6.50;;;5.40;99.90;;;;;;5033583;28;20037;-34
2022/04/30 02:40:25;;;;;;;12.57;6.43;;;5.40;99.90;;;;;;5066187;28;20055;-34
2022/04/30 02:42:52;;;;;;;9.53;6.10;;;5.40;99.90;;;;;;5068373;28;20036;-34
2022/04/30 02:45:19;;;;;;;11.10;6.00;;;5.40;99.90;;;;;;5069636;28;20059;-34
2022/04/30 02:47:56;;;;;;;11.93;6.60;;;5.40;99.90;;;;;;5041855;28;20052;-34
2022/04/30 02:50:23;;;;;;;12.57;6.17;;;5.30;99.90;;;;;;5049325;28;20087;-34
2022/04/30 02:52:50;;;;;;;13.57;5.87;;;5.40;99.90;;;;;;5048280;28;20049;-34
2022/04/30 02:55:16;;;;;;;11.33;6.30;;;5.30;99.90;;;;;;5047698;28;20053;-34
2022/04/30 03:00:40;;;;;;;10.17;6.00;;;5.50;99.90;;;;;;5056186;28;20471;-34
2022/04/30 03:03:08;;;;;;;13.20;5.90;;;5.30;99.90;;;;;;5064193;28;20566;-34
2022/04/30 03:05:40;;;;;;;10.27;6.37;;;5.30;99.90;;;;;;5036460;28;20151;-34
2022/04/30 03:08:19;;;;;;;11.30;6.70;;;5.30;99.90;;;;;;5048477;28;20052;-34
2022/04/30 03:10:46;;;;;;;12.10;6.13;;;5.30;99.90;;;;;;5069184;28;20399;-34
2022/04/30 03:13:14;;;;;;;12.47;5.73;;;5.30;99.90;;;;;;5067480;28;20102;-34
2022/04/30 03:15:45;;;;;;;9.07;6.07;;;5.30;99.90;;;;;;5069091;28;20128;-34
2022/04/30 03:23:39;;;;;;;11.47;6.47;;;5.40;99.90;;;;;;5047511;28;20057;-34
2022/04/30 03:26:05;;;;;;;9.87;6.33;;;5.40;99.90;;;;;;5048312;28;20253;-34
2022/04/30 03:28:32;;;;;;;12.30;6.43;;;5.40;99.90;;;;;;5044265;28;20049;-34
2022/04/30 03:30:58;;;;;;;12.47;6.10;;;5.40;99.90;;;;;;5068666;28;20560;-34
2022/04/30 03:33:27;;;;;;;12.87;6.83;;;5.40;99.90;;;;;;5068420;28;20059;-34
2022/04/30 03:35:54;;;;;;;12.50;6.73;;;5.40;99.90;;;;;;5068145;28;20476;-34
2022/04/30 03:38:20;;;;;;;16.03;6.47;;;5.40;99.90;;;;;;5052858;28;20058;-34
2022/04/30 03:40:46;;;;;;;11.33;6.50;;;5.40;99.90;;;;;;5068392;28;20442;-34
2022/04/30 03:43:12;;;;;;;9.80;6.30;;;5.50;99.90;;;;;;5067400;28;20052;-34
2022/04/30 03:45:38;;;;;;;10.00;6.50;;;5.50;99.90;;;;;;5060354;28;20044;-34
2022/04/30 03:48:04;;;;;;;10.47;6.30;;;5.50;99.90;;;;;;5031832;28;20044;-34
2022/04/30 03:50:30;;;;;;;9.70;6.33;;;5.50;99.90;;;;;;5048478;28;20076;-34
2022/04/30 03:52:56;;;;;;;14.10;6.90;;;5.50;99.90;;;;;;5047193;28;20052;-34
2022/04/30 03:55:22;;;;;;;10.57;6.03;;;5.50;99.90;;;;;;5048289;28;20060;-35
2022/04/30 03:57:48;;;;;;;11.37;6.97;;;5.50;99.90;;;;;;5031799;28;20052;-34
2022/04/30 04:00:14;;;;;;;14.63;7.20;;;5.60;99.90;;;;;;5052294;28;20044;-34
2022/04/30 04:02:41;;;;;;;11.10;6.60;;;5.60;99.90;;;;;;5065920;28;20045;-34
2022/04/30 04:05:12;;;;;;;9.80;6.20;;;5.60;99.90;;;;;;5048493;28;20080;-34
2022/04/30 04:07:42;;;;;;;12.88;6.82;;;5.60;99.90;;;;;;5031762;28;20128;-34
2022/04/30 04:10:09;;;;;;;11.67;6.00;;;5.60;99.90;;;;;;5047645;28;20037;-35
2022/04/30 04:12:36;;;;;;;9.40;6.60;;;5.70;99.90;;;;;;5047104;28;20132;-35
2022/04/30 04:17:47;;;;;;;13.67;6.80;;;5.60;99.90;;;;;;5031667;28;20055;-34
2022/04/30 04:20:13;;;;;;;9.67;6.50;;;5.70;99.90;;;;;;5048296;28;20045;-34
2022/04/30 04:22:40;;;;;;;10.37;6.67;;;5.70;99.90;;;;;;5047006;28;20037;-34
2022/04/30 04:27:55;;;;;;;13.00;6.77;;;5.70;99.90;;;;;;5031016;28;20569;-34
2022/04/30 04:30:26;;;;;;;10.50;6.83;;;5.70;99.90;;;;;;5049571;28;20053;-34
2022/04/30 04:32:54;;;;;;;10.73;6.77;;;5.70;99.90;;;;;;5050968;28;20128;-34
2022/04/30 04:35:20;;;;;;;9.47;6.80;;;5.70;99.90;;;;;;5053549;28;20255;-34
2022/04/30 04:37:46;;;;;;;13.97;7.73;;;5.80;99.90;;;;;;5056048;28;20403;-34
2022/04/30 04:40:13;;;;;;;12.63;8.47;;;5.70;99.90;;;;;;5071614;28;20137;-34
2022/04/30 04:42:40;;;;;;;14.27;8.13;;;5.90;99.90;;;;;;5070839;28;20079;-34
2022/04/30 04:45:07;;;;;;;11.00;7.50;;;5.80;99.90;;;;;;5071596;28;20051;-35
2022/04/30 04:47:39;;;;;;;13.43;8.07;;;5.80;99.90;;;;;;5055432;28;20037;-35
2022/04/30 04:50:08;;;;;;;14.63;8.37;;;5.80;99.90;;;;;;5057255;28;20044;-35
2022/04/30 04:52:35;;;;;;;14.13;8.23;;;5.80;99.90;;;;;;5050772;28;20048;-34
2022/04/30 04:55:01;;;;;;;13.87;8.53;;;5.90;99.90;;;;;;5051246;28;20057;-34
2022/04/30 04:57:27;;;;;;;13.33;8.30;;;5.90;99.90;;;;;;5034928;28;20111;-35
2022/04/30 04:59:54;;;;;;;12.87;7.50;;;5.90;99.90;;;;;;5052276;28;20048;-34
2022/04/30 05:02:20;;;;;;;14.00;8.40;;;5.90;99.90;;;;;;5070242;28;20088;-34
2022/04/30 05:04:46;;;;;;;17.40;8.57;;;5.90;99.90;;;;;;5053421;28;20404;-34
2022/04/30 05:07:11;;;;;;;13.90;8.07;;;6.00;99.90;;;;;;5035242;28;20049;-35
2022/04/30 05:09:37;;;;;;;13.17;8.50;;;6.00;99.90;;;;;;5050299;28;20468;-34
2022/04/30 05:12:04;;;;;;;14.03;8.00;;;6.10;99.90;;;;;;5050974;28;20098;-39
2022/04/30 05:14:33;;;;;;;14.57;8.03;;;6.10;99.90;;;;;;5050304;28;20087;-34
2022/04/30 05:16:59;;;;;;;14.30;9.27;;;6.20;99.90;;;;;;5034382;28;20075;-34
2022/04/30 05:19:25;;;;;;;10.83;8.40;;;6.20;99.90;;;;;;5049469;28;20466;-34
2022/04/30 05:21:51;;;;;;;12.00;7.73;;;6.20;99.90;;;;;;5051327;28;20124;-34
2022/04/30 05:24:16;;;;;;;13.40;8.87;;;6.40;99.90;;;;;;5048262;28;20164;-34
2022/04/30 05:26:42;;;;;;;13.10;8.17;;;6.30;99.90;;;;;;5037022;28;20464;-34
2022/04/30 05:29:08;;;;;;;10.10;8.83;;;6.30;99.90;;;;;;5049386;28;20451;-34
2022/04/30 05:31:34;;;;;;;14.60;9.30;;;6.40;99.90;;;;;;5050544;28;20061;-34
2022/04/30 05:33:59;;;;;;;16.10;10.17;;;6.60;99.90;;;;;;5049614;28;20052;-34
2022/04/30 05:36:25;;;;;;;14.77;9.17;;;6.50;99.90;;;;;;5037349;28;20318;-34
2022/04/30 05:38:51;;;;;;;14.93;9.23;;;6.50;99.90;;;;;;5047568;28;20055;-34
2022/04/30 05:41:17;;;;;;;14.57;8.33;;;6.60;99.90;;;;;;5060185;28;20044;-34
2022/04/30 05:43:43;;;;;;;14.13;8.13;;;6.70;99.90;;;;;;5048242;28;20094;-34
2022/04/30 05:46:09;;;;;;;12.67;7.97;;;6.80;99.90;;;;;;5043851;28;20135;-35
2022/04/30 05:48:34;;;;;;;12.67;8.37;;;6.80;99.90;;;;;;5047051;28;20120;-34
2022/04/30 05:51:02;;;;;;;20.03;8.73;;;6.90;99.90;;;;;;5058961;28;20044;-34
2022/04/30 05:53:28;;;;;;;16.60;8.23;;;7.00;99.90;;;;;;5059959;28;20035;-34
2022/04/30 05:55:54;;;;;;;12.83;8.70;;;7.00;99.90;;;;;;5048344;28;20412;-34
2022/04/30 05:58:19;;;;;;;14.17;8.40;;;7.10;99.90;;;;;;5030069;28;20055;-34
2022/04/30 06:00:46;;;;;;;12.90;7.77;;;7.10;99.90;;;;;;5046171;28;20044;-35
2022/04/30 06:03:11;;;;;;;15.70;8.53;;;7.20;99.90;;;;;;5045003;28;20045;-34
2022/04/30 06:05:37;;;;;;;12.77;8.87;;;7.40;99.90;;;;;;5043655;28;20037;-34
2022/04/30 06:08:07;;;;;;;13.80;8.80;;;7.40;99.90;;;;;;5031627;28;20071;-34
2022/04/30 06:10:32;;;;;;;14.30;8.27;;;7.40;99.90;;;;;;5048455;28;20440;-34
2022/04/30 06:12:58;;;;;;;11.57;8.20;;;7.50;99.90;;;;;;5045664;28;21094;-34
2022/04/30 06:15:25;;;;;;;11.63;7.70;;;7.50;99.90;;;;;;5046329;28;20091;-34
2022/04/30 06:17:50;;;;;;;12.40;8.00;;;7.60;99.90;;;;;;5028497;28;20060;-34
2022/04/30 06:20:16;;;;;;;13.00;8.53;;;7.60;99.90;;;;;;5041591;28;20049;-34
2022/04/30 06:22:42;;;;;;;13.47;7.70;;;7.60;99.90;;;;;;5044223;28;20049;-34
2022/04/30 06:25:08;;;;;;;9.23;6.83;;;7.70;99.90;;;;;;5063113;28;20722;-34
2022/04/30 06:27:34;;;;;;;11.20;7.80;;;7.80;99.90;;;;;;5026525;28;20045;-34
2022/04/30 06:30:00;;;;;;;15.53;9.00;;;7.70;99.90;;;;;;5045872;28;20052;-34
2022/04/30 06:32:27;;;;;;;13.17;7.87;;;7.80;99.90;;;;;;5046660;28;20048;-34
2022/04/30 06:34:52;;;;;;;17.27;8.00;;;7.90;99.90;;;;;;5047714;28;20473;-34
2022/04/30 06:37:18;;;;;;;15.93;8.10;;;7.90;99.90;;;;;;5030662;28;20037;-34
2022/04/30 06:39:45;;;;;;;14.70;8.10;;;8.00;99.90;;;;;;5046238;28;20072;-34
2022/04/30 06:42:10;;;;;;;15.00;7.57;;;8.00;99.90;;;;;;5045635;28;20076;-34
2022/04/30 06:44:36;;;;;;;14.67;7.87;;;8.00;99.90;;;;;;5045498;28;20072;-34
2022/04/30 06:47:02;;;;;;;12.87;7.77;;;8.10;99.90;;;;;;5030039;28;20044;-35
2022/04/30 06:49:28;;;;;;;13.47;6.93;;;8.10;99.90;;;;;;5043111;28;20041;-35
2022/04/30 06:51:54;;;;;;;10.47;6.83;;;8.20;99.90;;;;;;5044410;28;20041;-35
2022/04/30 06:57:16;;;;;;;11.53;6.40;;;8.20;99.90;;;;;;5029055;28;20087;-39
2022/04/30 06:59:45;;;;;;;10.63;5.97;;;8.30;99.90;;;;;;5056730;28;20355;-35
2022/04/30 07:02:13;;;;;;;10.63;5.77;;;8.30;99.90;;;;;;5045122;28;20447;-35
2022/04/30 07:04:42;;;;;;;8.83;6.03;;;8.40;99.90;;;;;;5045663;28;20444;-35
2022/04/30 07:07:08;;;;;;;7.73;5.20;;;8.40;99.90;;;;;;5028898;28;20040;-35
2022/04/30 07:09:35;;;;;;;10.53;6.53;;;8.60;99.90;;;;;;5043886;28;20044;-35
2022/04/30 07:12:06;;;;;;;11.03;7.10;;;8.50;99.90;;;;;;5025695;28;20048;-35
2022/04/30 07:14:40;;;;;;;;;;;8.50;99.90;;;;;;5044876;28;20037;-35
2022/04/30 07:17:11;;;;;;;11.33;7.10;;;8.50;99.90;;;;;;5028942;28;19990;-35
2022/04/30 07:19:37;;;;;;;;;;;8.50;99.90;;;;;;5045324;28;20343;-35
2022/04/30 07:22:04;;;;;;;13.40;8.50;;;8.60;99.90;;;;;;5043785;28;19923;-35
2022/04/30 07:24:33;;;;;;;11.20;8.40;;;8.70;99.90;;;;;;5044691;28;20855;-34
2022/04/30 07:26:59;;;;;;;15.23;7.30;;;8.60;99.90;;;;;;5029841;28;20059;-34
2022/04/30 07:29:25;;;;;;;11.73;7.23;;;8.80;99.90;;;;;;5044746;28;20040;-35
2022/04/30 07:31:51;;;;;;;10.00;6.23;;;8.80;99.90;;;;;;5043182;28;20056;-34
2022/04/30 07:34:17;;;;;;;11.60;7.20;;;8.90;99.90;;;;;;5043973;28;20041;-34
2022/04/30 07:36:42;;;;;;;10.90;7.20;;;8.90;99.90;;;;;;5030777;28;20056;-35
2022/04/30 07:39:08;;;;;;;11.40;7.20;;;8.60;99.90;;;;;;5044515;28;20049;-35
2022/04/30 07:41:35;;;;;;;10.40;6.80;;;9.00;99.90;;;;;;5042155;28;20059;-35
2022/04/30 07:44:01;;;;;;;10.23;6.77;;;9.00;99.90;;;;;;5056038;28;20073;-35
2022/04/30 07:46:26;;;;;;;10.70;7.23;;;9.10;99.90;;;;;;5030981;28;20503;-35
2022/04/30 07:48:52;;;;;;;10.20;6.50;;;9.10;99.90;;;;;;5038551;28;20064;-36
2022/04/30 07:51:34;;;;;;;11.07;6.70;;;9.20;99.90;;;;;;5042875;28;20044;-36
2022/04/30 07:54:07;;;;;;;10.63;8.10;;;9.10;99.90;;;;;;5043812;28;20048;-35
2022/04/30 07:56:33;;;;;;;9.07;6.60;;;9.20;99.90;;;;;;5030616;28;20048;-36
2022/04/30 07:58:59;;;;;;;9.40;5.97;;;9.20;99.90;;;;;;5041271;28;20045;-35
2022/04/30 08:01:25;;;;;;;7.73;6.13;;;9.30;99.90;;;;;;5043966;28;20393;-36
2022/04/30 08:03:50;;;;;;;9.37;5.67;;;9.40;99.90;;;;;;5056403;28;20056;-36
2022/04/30 08:06:16;;;;;;;6.50;4.97;;;9.40;99.90;;;;;;5031638;28;20451;-36
2022/04/30 08:08:42;;;;;;;10.00;6.03;;;9.50;99.90;;;;;;5052100;28;20141;-36
2022/04/30 08:11:08;;;;;;;6.73;5.63;;;9.60;99.90;;;;;;5041873;28;20037;-36
2022/04/30 08:13:34;;;;;;;9.50;6.27;;;9.60;99.90;;;;;;5041482;28;20207;-36
2022/04/30 08:16:00;;;;;;;10.13;5.90;;;9.60;99.90;;;;;;5042666;28;20099;-36
2022/04/30 08:18:26;;;;;;;6.97;5.70;;;9.80;99.90;;;;;;5024308;28;20447;-36
2022/04/30 08:20:52;;;;;;;7.27;4.87;;;9.80;99.90;;;;;;5043915;28;20041;-36
2022/04/30 08:23:18;;;;;;;6.90;5.40;;;9.90;99.90;;;;;;5042910;28;20053;-36
2022/04/30 08:25:44;;;;;;;7.40;5.17;;;10.10;99.90;;;;;;5059267;28;20102;-36
2022/04/30 08:28:10;;;;;;;7.80;5.20;;;10.10;99.90;;;;;;5026786;28;20532;-36
2022/04/30 08:30:35;;;;;;;9.07;5.10;;;10.20;99.90;;;;;;5043010;28;20496;-36
2022/04/30 08:33:01;;;;;;;7.30;4.27;;;10.30;99.90;;;;;;5041027;28;20419;-36
2022/04/30 08:35:27;;;;;;;6.23;4.83;;;10.30;99.90;;;;;;5046238;28;20136;-36
2022/04/30 08:37:53;;;;;;;9.00;5.10;;;10.40;99.90;;;;;;5048542;28;20048;-36
2022/04/30 08:40:20;;;;;;;6.27;4.63;;;10.50;99.90;;;;;;5049230;28;20037;-36
2022/04/30 08:42:46;;;;;;;7.20;4.87;;;10.60;99.90;;;;;;5043545;28;20530;-36
2022/04/30 08:45:12;;;;;;;6.63;4.93;;;10.70;99.90;;;;;;5044548;28;20056;-36
2022/04/30 08:47:40;;;;;;;8.52;4.63;;;10.80;99.90;;;;;;5026065;28;20041;-36
2022/04/30 08:50:10;;;;;;;9.60;4.85;;;10.90;99.90;;;;;;5042365;28;20103;-36
2022/04/30 08:52:36;;;;;;;7.45;5.15;;;11.00;99.90;;;;;;5039562;28;20048;-36
2022/04/30 08:55:03;;;;;;;8.90;5.30;;;11.00;99.90;;;;;;5042962;28;20046;-36
2022/04/30 08:57:28;;;;;;;13.05;5.45;;;11.10;99.90;;;;;;5027313;28;20072;-36
2022/04/30 08:59:54;;;;;;;9.30;5.20;;;11.20;99.90;;;;;;5043927;28;20080;-36
2022/04/30 09:02:20;;;;;;;7.32;4.88;;;11.40;99.90;;;;;;5042266;28;20049;-36
2022/04/30 09:04:49;;;;;;;9.15;4.70;;;11.40;99.90;;;;;;5042683;28;20048;-36
2022/04/30 09:07:21;;;;;;;8.63;5.45;;;11.60;99.90;;;;;;5025996;28;20053;-36
2022/04/30 09:09:54;;;;;;;;;;;11.60;99.90;;;;;;5042888;28;20044;-36
2022/04/30 09:12:20;;;;;;;8.75;4.75;;;11.70;99.90;;;;;;5039596;28;20233;-36
2022/04/30 09:14:47;;;;;;;9.40;4.95;;;11.80;99.90;;;;;;5043488;28;20048;-36
2022/04/30 09:17:14;;;;;;;9.95;4.75;;;11.90;99.90;;;;;;5029849;28;20052;-37
2022/04/30 09:19:52;;;;;;;9.05;4.55;;;12.00;99.90;;;;;;5047815;28;20147;-36
2022/04/30 09:22:39;;;;;;;9.07;5.22;;;12.10;99.90;;;;;;5046953;28;20040;-37
2022/04/30 09:25:11;;;;;;;7.38;4.95;;;12.10;99.90;;;;;;5012217;28;20428;-36
2022/04/30 09:27:46;;;;;;;;;;;12.20;99.90;;;;;;5030407;28;20109;-37
2022/04/30 09:30:28;;;;;;;8.85;4.57;;;12.20;99.90;;;;;;5043450;28;20007;-36
2022/04/30 09:33:03;;;;;;;7.00;4.72;;;12.30;99.90;;;;;;5044702;28;20055;-36
2022/04/30 09:38:15;;;;;;;8.55;5.38;;;12.40;99.90;;;;;;5032659;28;20084;-36
2022/04/30 09:40:55;;;;;;;7.47;4.72;;;12.40;99.90;;;;;;5051393;28;20182;-36
2022/04/30 09:43:27;;;;;;;11.27;5.00;;;12.50;99.90;;;;;;5045305;28;20052;-36
2022/04/30 09:45:59;;;;;;;9.20;5.30;;;12.50;99.90;;;;;;5051760;28;20108;-37
2022/04/30 09:53:57;;;;;;;9.55;5.35;;;12.50;99.90;;;;;;5046488;28;20048;-36
2022/04/30 09:56:37;;;;;;;8.70;5.60;;;12.50;99.90;;;;;;5039918;28;20079;-37
2022/04/30 09:59:11;;;;;;;9.13;5.22;;;12.40;99.90;;;;;;5046591;28;20049;-37
2022/04/30 10:01:40;;;;;;;11.32;4.95;;;12.50;99.90;;;;;;5048653;28;20044;-36
2022/04/30 10:04:14;;;;;;;9.77;4.68;;;12.50;99.90;;;;;;5047729;28;20045;-37
2022/04/30 10:06:50;;;;;;;10.20;5.00;;;12.50;99.90;;;;;;5037802;28;20037;-37
2022/04/30 10:09:18;;;;;;;10.77;4.80;;;12.50;99.90;;;;;;5044132;28;20084;-37
2022/04/30 10:12:00;;;;;;;7.50;4.80;;;12.50;99.90;;;;;;5050601;28;20041;-37
2022/04/30 10:14:41;;;;;;;6.43;4.72;;;12.50;99.90;;;;;;5044978;28;20052;-36
2022/04/30 10:17:13;;;;;;;7.60;4.38;;;12.40;99.90;;;;;;5036560;28;20055;-37
2022/04/30 10:19:39;;;;;;;10.13;4.70;;;12.40;99.90;;;;;;5049237;28;20065;-37
2022/04/30 10:22:16;;;;;;;8.43;4.45;;;12.30;99.90;;;;;;5047796;28;20041;-37
2022/04/30 10:24:49;;;;;;;8.55;5.00;;;12.40;99.90;;;;;;5051340;28;20124;-36
2022/04/30 10:27:17;;;;;;;10.18;5.43;;;12.40;99.90;;;;;;5031503;28;20496;-37
2022/04/30 10:29:53;;;;;;;11.02;5.20;;;12.40;99.90;;;;;;5049484;28;20073;-37
2022/04/30 10:32:33;;;;;;;9.25;5.10;;;12.30;99.90;;;;;;5050354;28;20040;-37
2022/04/30 10:35:00;;;;;;;7.65;5.25;;;12.30;99.90;;;;;;5049262;28;20037;-36
2022/04/30 10:37:37;;;;;;;10.50;4.88;;;12.20;99.90;;;;;;5038240;28;20472;-37
2022/04/30 10:40:08;;;;;;;11.65;5.18;;;12.30;99.90;;;;;;5053554;28;20040;-36
2022/04/30 10:42:41;;;;;;;;;;;12.20;99.90;;;;;;5052083;28;20055;-36
2022/04/30 10:45:12;;;;;;;8.45;5.28;;;12.20;99.90;;;;;;5051035;28;20031;-36
2022/04/30 10:47:55;;;;;;;9.90;5.10;;;12.20;99.90;;;;;;5034641;28;20132;-36
2022/04/30 10:50:22;;;;;;;11.52;5.22;;;12.20;99.90;;;;;;5048371;28;20179;-36
2022/04/30 10:52:50;;;;;;;11.07;4.70;;;12.30;99.90;;;;;;5048639;28;20114;-36
2022/04/30 10:55:18;;;;;;;10.77;5.28;;;12.30;99.90;;;;;;5050829;28;20653;-36
2022/04/30 10:57:45;;;;;;;9.65;5.63;;;12.30;99.90;;;;;;5032742;28;20087;-36
2022/04/30 11:00:12;;;;;;;9.50;5.30;;;12.30;99.90;;;;;;5046776;28;20051;-36
2022/04/30 11:02:38;;;;;;;8.88;6.18;;;12.30;99.90;;;;;;5048892;28;20049;-36
2022/04/30 11:05:05;;;;;;;8.00;5.78;;;12.30;99.90;;;;;;5046824;28;20504;-36
2022/04/30 11:07:32;;;;;;;8.50;5.20;;;12.30;99.90;;;;;;5030086;28;20076;-36
2022/04/30 11:09:57;;;;;;;7.95;5.28;;;12.30;99.90;;;;;;5046566;28;20103;-36
2022/04/30 11:12:32;;;;;;;8.52;5.18;;;12.30;99.90;;;;;;5046784;28;20190;-36
2022/04/30 11:14:58;;;;;;;9.68;5.43;;;12.30;99.90;;;;;;5047793;28;20103;-36
2022/04/30 11:17:25;;;;;;;10.68;5.40;;;12.30;99.90;;;;;;5034035;28;20073;-36
2022/04/30 11:19:51;;;;;;;8.73;5.00;;;12.30;99.90;;;;;;5046231;28;20389;-36
2022/04/30 11:22:17;;;;;;;13.48;5.70;;;12.20;99.90;;;;;;5048702;28;20440;-36
2022/04/30 11:24:43;;;;;;;9.30;5.63;;;12.20;99.90;;;;;;5051216;28;20048;-36
2022/04/30 11:27:09;;;;;;;9.70;5.13;;;12.20;99.90;;;;;;5032660;28;20047;-36
2022/04/30 11:29:37;;;;;;;6.97;4.53;;;12.20;99.90;;;;;;5044813;28;20053;-36
2022/04/30 11:32:05;;;;;;;8.57;5.00;;;12.10;99.90;;;;;;5034814;28;20077;-37
2022/04/30 11:34:31;;;;;;;6.90;4.90;;;12.10;99.90;;;;;;5043423;28;20044;-37
2022/04/30 11:36:58;;;;;;;10.07;4.72;;;12.10;99.90;;;;;;5025863;28;20048;-36
2022/04/30 11:39:25;;;;;;;9.35;5.30;;;12.10;99.90;;;;;;5040409;28;20045;-36
2022/04/30 11:41:53;;;;;;;10.50;5.15;;;12.00;99.90;;;;;;5043644;28;20064;-36
2022/04/30 11:44:20;;;;;;;7.13;4.32;;;12.00;99.90;;;;;;5042636;28;20045;-36
2022/04/30 11:46:48;;;;;;;5.97;3.90;;;12.00;99.90;;;;;;5032926;28;20041;-36
2022/04/30 11:49:18;;;;;;;6.07;3.70;;;11.90;99.90;;;;;;5044279;28;20051;-36
2022/04/30 11:51:45;;;;;;;8.25;4.60;;;11.90;99.90;;;;;;5041462;28;20578;-36
2022/04/30 11:54:14;;;;;;;7.28;4.30;;;11.90;99.90;;;;;;5043049;28;20136;-36
2022/04/30 11:56:42;;;;;;;7.20;5.03;;;11.80;99.90;;;;;;5029916;28;20052;-36
2022/04/30 11:59:08;;;;;;;6.63;4.68;;;11.80;99.90;;;;;;5042813;28;20063;-36
2022/04/30 12:01:42;;;;;;;9.52;6.28;;;11.80;99.90;;;;;;5044563;28;20040;-36
2022/04/30 12:04:15;;;;;;;10.45;6.00;;;11.70;99.90;;;;;;5045684;28;20084;-36
2022/04/30 12:06:43;;;;;;;10.63;5.82;;;11.70;99.90;;;;;;5032322;28;20110;-35
2022/04/30 12:09:20;;;;;;;11.80;6.00;;;11.70;99.90;;;;;;5045917;28;20064;-35
2022/04/30 12:11:50;;;;;;;9.57;6.15;;;11.70;99.90;;;;;;5024016;28;20065;-35
2022/04/30 12:14:16;;;;;;;11.20;5.93;;;11.60;99.90;;;;;;5046153;28;20540;-36
2022/04/30 12:16:44;;;;;;;8.10;6.13;;;11.60;99.90;;;;;;5034425;28;20045;-35
2022/04/30 12:25:14;;;;;;;8.93;6.13;;;11.50;99.90;;;;;;5045636;28;20092;-37
2022/04/30 12:27:41;;;;;;;8.05;5.88;;;11.50;99.90;;;;;;5031131;28;20052;-36
2022/04/30 12:30:12;;;;;;;7.95;4.90;;;11.50;99.90;;;;;;5048895;28;20063;-36
2022/04/30 12:32:49;;;;;;;15.20;5.40;;;11.50;99.90;;;;;;5042514;28;20400;-36
2022/04/30 12:35:23;;;;;;;7.50;4.93;;;11.50;99.90;;;;;;5043978;28;20708;-36
2022/04/30 12:37:48;;;;;;;9.38;5.53;;;11.50;99.90;;;;;;5025212;28;20061;-37
2022/04/30 12:40:14;;;;;;;8.45;5.28;;;11.50;99.90;;;;;;5043603;28;20116;-36
2022/04/30 12:42:41;;;;;;;9.10;5.18;;;11.50;99.90;;;;;;5041933;28;20610;-36
2022/04/30 12:45:07;;;;;;;7.25;4.93;;;11.50;99.90;;;;;;5045293;28;20053;-36
2022/04/30 12:47:33;;;;;;;8.20;5.15;;;11.50;99.90;;;;;;5028949;28;20388;-36
2022/04/30 12:49:59;;;;;;;8.68;5.30;;;11.50;99.90;;;;;;5045066;28;20041;-36
2022/04/30 12:52:25;;;;;;;9.82;4.80;;;11.50;99.90;;;;;;5047808;28;20045;-36
2022/04/30 12:54:51;;;;;;;5.88;4.18;;;11.50;99.90;;;;;;5042708;28;20473;-36
2022/04/30 12:57:17;;;;;;;9.13;4.60;;;11.50;99.90;;;;;;5031012;28;20048;-36
2022/04/30 12:59:44;;;;;;;9.25;4.63;;;11.50;99.90;;;;;;5045211;28;20102;-36
2022/04/30 13:02:09;;;;;;;7.63;5.22;;;11.60;99.90;;;;;;5042986;28;20056;-37
2022/04/30 13:04:36;;;;;;;8.30;4.30;;;11.70;99.90;;;;;;5048679;28;20044;-36
2022/04/30 13:07:02;;;;;;;7.65;4.40;;;11.60;99.90;;;;;;5033023;28;20052;-37
2022/04/30 13:14:56;;;;;;;6.22;4.90;;;11.70;99.90;;;;;;5048228;28;20083;-37
2022/04/30 13:17:22;;;;;;;10.77;5.05;;;11.80;99.90;;;;;;5032205;28;20068;-37
2022/04/30 13:19:49;;;;;;;9.05;5.13;;;11.80;99.90;;;;;;5047200;28;20040;-37
2022/04/30 13:22:15;;;;;;;9.95;5.10;;;11.90;99.90;;;;;;5043982;28;20500;-37
2022/04/30 13:24:41;;;;;;;11.40;5.95;;;11.80;99.90;;;;;;5027727;28;20052;-36
2022/04/30 13:27:06;;;;;;;8.43;5.30;;;11.90;99.90;;;;;;5030650;28;20132;-37
2022/04/30 13:29:32;;;;;;;9.32;6.10;;;11.90;99.90;;;;;;5042212;28;20411;-36
2022/04/30 13:31:58;;;;;;;9.07;5.38;;;12.00;99.90;;;;;;5047263;28;20322;-37
2022/04/30 13:34:23;;;;;;;8.50;5.70;;;12.00;99.90;;;;;;5047772;28;20652;-36